航空気象通報

ウインドサーファーのための航空気象通報による風予報です。

12/30-1/1の航空気象通報

2017年12月30日 23時12分02秒 | TAF
羽田空港
TAF RJTT 301107Z 3012/3118 03014KT 9999 FEW030
BECMG 3018/3020 33008KT
日本時間30日21時-31日03時:030度から14ノットの風
03-05時:風が変化
05時-1日03時:330度から8ノットの風


静岡空港
TAF RJNS 301106Z 3012/3118 36005KT 9999 FEW030 BKN050
BECMG 3100/3103 06004KT
BECMG 3109/3112 27014KT
日本時間30日21時-31日09時:360度から5ノットの風
09-12時:風が変化
12-18時:060度から4ノットの風
18-21時:風が変化
21時-1日03時:270度から14ノットの風


福岡空港
TAF RJFF 301106Z 3012/3118 16006KT 8000 FEW020 SCT030 BKN040
TEMPO 3018/3100 4000 -SHRA BR
BECMG 3022/3100 31012KT
日本時間30日21時-31日07時:160度から6ノットの風
07-09時:風が変化
09時-1日03時:310度から12ノットの風

但し、31日03-09時の間:時々

那覇空港
TAF ROAH 301105Z 3012/3118 06006KT 9999 FEW035 SCT045
BECMG 3100/3103 35014KT
日本時間30日21時-31日09時:060度から6ノットの風
09-12時:風が変化
12時-1日03時:350度から14ノットの風


石垣空港
TAF ROIG 301109Z 3012/3118 04012KT 9999 FEW010 BKN035
TEMPO 3018/3021 4000 SHRA
日本時間30日21時-1日03時:040度から12ノットの風

但し、31日03-06時の間:時々

マウイのカフルイ空港
PHOG 301125Z 3012/3112 06006KT P6SM VCSH SCT025 BKN040
FM302000 04013G19KT P6SM FEW035 SCT050
FM310400 04010KT P6SM FEW035 SCT050 AMD LTD TO VIS AND WIND TIL 301600
ハワイ時間30日02-10時:060度から6ノットの風

10-18時:040度から13ノット、突風19ノット
18時-31日02時:040度から10ノットの風


サイパン空港
TAF PGSN 301132Z 3012/3112 05007KT P6SM VCSH FEW022 SCT060
FM301500 08013KT P6SM VCSH SCT020 BKN080
マリアナ時間30日22時-31日01時:050度から7ノットの風

01-22時:080度から13ノットの風
コメント

12/29-12/31の航空気象通報

2017年12月29日 23時50分29秒 | TAF
羽田空港
TAF RJTT 291105Z 2912/3018 32012KT 9999 FEW030
BECMG 3012/3015 04010KT
日本時間29日21時-30日21時:320度から12ノットの風
21-24時:風が変化
31日00-03時:040度から10ノットの風


静岡空港
TAF RJNS 291106Z 2912/3018 26020KT 9999 FEW030
BECMG 2921/2923 28010KT
BECMG 3003/3006 06004KT
BECMG 3012/3015 36006KT
日本時間29日21時-30日06時:260度から20ノットの風
06-08時:風が変化
08-12時:280度から10ノットの風
12-15時:風が変化
15-21時:060度から4ノットの風
21-24時:風が変化
31日00-03時:360度から6ノットの風


福岡空港
TAF RJFF 291107Z 2912/3018 32005KT 8000 FEW030 SCT040
BECMG 2912/2914 15005KT
日本時間29日21時:320度から5ノットの風
21-23時:風が変化
23時-31日03時:150度から5ノットの風


那覇空港
TAF ROAH 291106Z 2912/3018 05007KT 9999 FEW030 BKN045
日本時間29日21時-31日03時:050度から7ノットの風


石垣空港
TAF ROIG 291109Z 2912/3018 06012KT 9999 FEW025 BKN040
日本時間29日21時-31日03時:060度から12ノットの風


マウイのカフルイ空港
PHOG 291136Z 2912/3012 05007KT P6SM VCSH FEW025 SCT045
FM292200 04011KT P6SM VCSH FEW030 BKN050
FM300300 04008KT 6SM -SHRA SCT025 BKN045 AMD LTD TO VIS AND WIND TIL 291600
ハワイ時間29日02-12時:050度から7ノットの風

12-17時:040度から11ノットの風

17時-30日02時:040度から8ノットの風


サイパン空港
TAF PGSN 291123Z 2912/3012 09010KT P6SM VCSH SCT022 BKN150
マリアナ時間29日22時-30日22時:090度から10ノットの風
コメント

12/28-12/30の航空気象通報

2017年12月28日 23時26分21秒 | TAF
羽田空港
TAF RJTT 281105Z 2812/2918 35016KT 9999 FEW030
BECMG 2903/2906 14008KT
BECMG 2909/2912 34015KT
日本時間28日21時-29日12時:350度から16ノットの風
12-15時:風が変化
15-18時:140度から8ノットの風
18-21時:風が変化
21時-30日03時:340度から15ノットの風


静岡空港
TAF RJNS 281105Z 2812/2918 27014KT 9999 FEW030
TEMPO 2900/2912 27022G32KT
日本時間28日21時-30日03時:270度から14ノットの風
但し、29日09-21時の間:時々270度から22ノット、突風32ノット


福岡空港
TAF RJFF 281106Z 2812/2918 15004KT 9999 FEW030 SCT040
BECMG 2900/2903 33008KT
BECMG 2912/2915 14004KT
日本時間28日21時-29日09時:150度から4ノットの風
09-12時:風が変化
12-21時:330度から8ノットの風
21-24時:風が変化
27日00-03時:140度から4ノットの風


那覇空港
TAF ROAH 281105Z 2812/2918 04007KT 9999 FEW030 SCT040
日本時間28日21時-30日03時:040度から7ノットの風


石垣空港
TAF ROIG 281107Z 2812/2918 07012KT 9999 FEW035 BKN045
日本時間28日21時-30日03時:070度から12ノットの風


マウイのカフルイ空港
PHOG 281120Z 2812/2912 19006KT P6SM FEW030 SCT045
FM282000 01013KT P6SM FEW030 SCT050
FM290400 03007KT P6SM FEW030 FEW050 AMD LTD TO VIS AND WIND TIL 281600
ハワイ時間28日02-10時:190度から6ノットの風
10-18時:010度から13ノットの風
18時-29日02時:030度から7ノットの風


サイパン空港
TAF PGSN 281135Z 2812/2912 06016KT P6SM VCSH SCT022 SCT050
マリアナ時間28日22時-29日22時:060度から16ノットの風
コメント

12/27-12/29の航空気象通報

2017年12月27日 23時08分49秒 | TAF
羽田空港
TAF RJTT 271106Z 2712/2818 33016KT 9999 FEW030
日本時間27日21時-29日03時:330度から16ノットの風


静岡空港
TAF RJNS 271105Z 2712/2818 27018KT 9999 FEW030
TEMPO 2800/2806 28022G32KT
日本時間27日21時-29日03時:270度から18ノットの風
但し、28日09-15時の間:時々280度から22ノット、突風32ノット


福岡空港
TAF AMD RJFF 271344Z 2713/2818 14006KT 9999 FEW040
BECMG 2721/2723 33008KT
BECMG 2809/2812 14005KT
日本時間27日22時-28日06時:140度から6ノットの風
06-08時:風が変化
08-18時:330度から8ノットの風
18-21時:風が変化
21時-29日03時:140度から5ノットの風


那覇空港
TAF ROAH 271105Z 2712/2818 05008KT 9999 FEW035 BKN045
日本時間27日21時-29日03時:050度から8ノットの風


石垣空港
TAF ROIG 271108Z 2712/2818 06014KT 9999 FEW030 BKN040
日本時間27日21時-29日03時:060度から14ノットの風


マウイのカフルイ空港
PHOG 271130Z 2712/2812 21008KT 6SM -SHRA SCT025 BKN045
TEMPO 2712/2716 3SM SHRA BR BKN020 BKN040
FM271600 21012KT P6SM VCSH SCT025 BKN050
FM280200 18009KT P6SM VCSH SCT025 BKN050 AMD LTD TO VIS AND WIND TIL 271600
ハワイ時間27日02-06時:210度から8ノットの風

06-16時:210度から12ノットの風
16時-28日02時:180度から9ノットの風


サイパン空港
TAF PGSN 271133Z 2712/2812 06011KT P6SM VCSH FEW020 SCT050
マリアナ時間27日22時-28日22時:060度から11ノットの風
コメント

12/24-12/26の航空気象通報

2017年12月24日 23時50分01秒 | TAF
羽田空港
TAF AMD RJTT 241343Z 2413/2518 30004KT 6000 -SHRA FEW008 BKN015
TEMPO 2417/2419 2000 +SHRA BR FEW005 BKN008
BECMG 2418/2420 34018KT
TEMPO 2419/2421 32020G30KT 2000 +SHRA BR FEW005 BKN008
日本時間24日21時-25日03時:300度から4ノットの風
03-05時:風が変化
05時-26日03時:340度から18ノットの風
但し、25日04-06時の間:時々320度から20ノット、突風30ノット


静岡空港
TAF RJNS 241108Z 2412/2518 12004KT 6000 -SHRA FEW008 BKN015
TEMPO 2412/2419 1500 +SHRA BR FEW005 BKN008
BECMG 2415/2417 26024G34KT
TEMPO 2500/2506 26030G44KT
日本時間24日21-24時:120度から4ノットの風
25日00-02時:風が変化
02時-26日03時:260度から24ノット、突風34ノット
但し、25日09-15時の間:時々260度から30ノット、突風44ノット


福岡空港
TAF RJFF 241108Z 2412/2518 30018KT 9000 FEW020 BKN040
TEMPO 2412/2421 30020G30KT
BECMG 2509/2512 31007KT
日本時間24日21時-25日18時:300度から18ノットの風
但し、24日21時-25日06時の間:時々300度から20ノット、突風30ノット
18-21時:風が変化
21時-26日03時:310度から7ノットの風


那覇空港
TAF ROAH 241106Z 2412/2518 35026KT 8000 FEW020 BKN030
TEMPO 2412/2421 35027G37KT
BECMG 2503/2506 02015KT
日本時間24日21時-25日12時:350度から26ノットの風
但し、24日21時の間:時々350度から27ノット、突風37ノット
12-15時:風が変化
15時-26日03時:020度から15ノットの風


石垣空港
TAF ROIG 241110Z 2412/2518 01020KT 9999 SCT020 BKN045
TEMPO 2412/2500 01022G32KT
日本時間24日21時-26日03時:010度から20ノットの風
但し、24日21時-25日09時の間:時々010度から22ノット、突風32ノット


マウイのカフルイ空港
PHOG 241120Z 2412/2512 06008KT P6SM VCSH FEW025 BKN045
FM242000 04015KT P6SM FEW030 SCT050
FM250400 04008KT P6SM FEW030 SCT050 AMD LTD TO VIS AND WIND TIL 241600
ハワイ時間24日02-10時:060度から8ノットの風

10-18時:040度から15ノットの風
18時-25日02時:040度から8ノットの風


サイパン空港
TAF PGSN 241137Z 2412/2512 08011KT P6SM VCSH FEW020 SCT050
マリアナ時間24日22時-25日12時:080度から11ノットの風
12-22時:090度から15ノットの風

コメント